Time;durP1;ratioP1;P1;durP2;ratioP2;P2;SDS_P1;SDS_P2;PMS_P1;PMS_P2;Temp;Humidity;BMP_temperature;BMP_pressure;BME280_temperature;BME280_humidity;BME280_pressure;Samples;Min_cycle;Max_cycle;Signal;HPM_P1;HPM_P2
2022/08/07 00:01:36;;;;;;;6.20;4.23;;;16.80;99.90;;;;;;20999871;28;20032;-75
2022/08/07 00:11:37;;;;;;;8.47;4.17;;;16.90;99.90;;;;;;20999010;28;20127;-74
2022/08/07 00:21:38;;;;;;;6.10;3.87;;;17.20;99.90;;;;;;20997666;28;20044;-75
2022/08/07 00:31:38;;;;;;;5.67;3.53;;;17.10;99.90;;;;;;20997161;28;20040;-75
2022/08/07 00:41:48;;;;;;;5.33;4.03;;;16.90;99.90;;;;;;20996596;28;20134;-75
2022/08/07 00:51:48;;;;;;;6.20;3.25;;;16.60;99.90;;;;;;20977678;28;20658;-75
2022/08/07 01:01:49;;;;;;;4.60;3.33;;;16.90;99.90;;;;;;20994654;28;20068;-75
2022/08/07 01:11:51;;;;;;;6.03;3.73;;;17.20;99.90;;;;;;20994144;28;20403;-75
2022/08/07 01:21:54;;;;;;;9.10;3.72;;;16.80;99.90;;;;;;20975659;28;20068;-75
2022/08/07 01:31:58;;;;;;;8.23;3.60;;;17.00;99.90;;;;;;20973885;28;20044;-75
2022/08/07 01:41:59;;;;;;;4.65;3.83;;;17.10;99.90;;;;;;20984410;28;20426;-82
2022/08/07 01:52:06;;;;;;;7.10;5.20;;;16.60;99.90;;;;;;20962747;28;20079;-83
2022/08/07 02:02:11;;;;;;;7.85;4.40;;;16.10;99.90;;;;;;20996920;22;20120;-76
2022/08/07 02:12:17;;;;;;;6.25;4.70;;;16.00;99.90;;;;;;20997233;28;20044;-77
2022/08/07 02:22:24;;;;;;;9.00;4.43;;;16.10;99.90;;;;;;21008663;28;20041;-77
2022/08/07 02:32:26;;;;;;;9.52;5.10;;;16.10;99.90;;;;;;21044352;28;20547;-76
2022/08/07 02:42:29;;;;;;;8.77;5.00;;;15.20;99.90;;;;;;21064730;28;20449;-77
2022/08/07 02:52:40;;;;;;;8.00;5.50;;;15.30;99.90;;;;;;21035454;28;20075;-77
2022/08/07 03:02:45;;;;;;;9.57;5.28;;;15.40;99.90;;;;;;21030672;28;20445;-77
2022/08/07 03:12:47;;;;;;;9.43;5.82;;;15.20;99.90;;;;;;21009598;28;20039;-77
2022/08/07 03:22:52;;;;;;;5.68;4.60;;;15.00;99.90;;;;;;20987872;28;20033;-78
2022/08/07 03:32:54;;;;;;;6.75;5.43;;;15.20;99.90;;;;;;20995024;28;20040;-76
2022/08/07 03:42:56;;;;;;;7.95;6.10;;;14.80;99.90;;;;;;21005141;28;20521;-77
2022/08/07 03:52:58;;;;;;;8.32;5.50;;;14.60;99.90;;;;;;20986295;28;20380;-77
2022/08/07 04:03:01;;;;;;;10.05;6.72;;;14.60;99.90;;;;;;20985863;28;20506;-78
2022/08/07 04:13:06;;;;;;;9.23;6.43;;;14.40;99.90;;;;;;20984345;28;20059;-76
2022/08/07 04:23:08;;;;;;;;;;;14.30;99.90;;;;;;20983845;28;20036;-77
2022/08/07 04:33:13;;;;;;;10.60;6.68;;;14.50;99.90;;;;;;20983914;28;19920;-76
2022/08/07 04:43:36;;;;;;;10.57;6.95;;;14.60;99.90;;;;;;20981755;28;20040;-77
2022/08/07 04:54:15;;;;;;;15.63;7.05;;;14.50;99.90;;;;;;20980077;28;20127;-77
2022/08/07 05:04:27;;;;;;;11.90;7.07;;;14.30;99.90;;;;;;20976108;28;20047;-77
2022/08/07 05:14:40;;;;;;;10.93;5.88;;;14.40;99.90;;;;;;20997660;28;20033;-77
2022/08/07 05:24:43;;;;;;;8.00;5.03;;;14.60;99.90;;;;;;20978888;28;20048;-76
2022/08/07 05:34:47;;;;;;;10.20;5.82;;;14.60;99.90;;;;;;20979409;28;20037;-77
2022/08/07 05:44:49;;;;;;;9.13;4.88;;;14.50;99.90;;;;;;20995583;28;20403;-77
2022/08/07 05:54:50;;;;;;;7.75;4.60;;;14.80;99.90;;;;;;20975996;28;20037;-76
2022/08/07 06:04:55;;;;;;;7.87;3.80;;;15.00;99.90;;;;;;20959762;28;20071;-77
2022/08/07 06:15:00;;;;;;;5.10;3.08;;;15.30;99.90;;;;;;20992290;28;20060;-77
2022/08/07 06:25:01;;;;;;;8.75;2.90;;;15.70;99.90;;;;;;20978859;28;20452;-77
2022/08/07 06:35:03;;;;;;;5.30;2.70;;;15.80;99.90;;;;;;20979058;28;20040;-76
2022/08/07 06:45:09;;;;;;;5.05;2.35;;;16.20;99.90;;;;;;20976955;28;20047;-77
2022/08/07 06:55:15;;;;;;;6.30;2.65;;;16.20;99.90;;;;;;20967122;28;20041;-76
2022/08/07 07:05:20;;;;;;;7.43;2.88;;;16.30;99.90;;;;;;20970238;28;20044;-76
2022/08/07 07:15:26;;;;;;;3.65;1.88;;;16.70;99.90;;;;;;20953940;28;20032;-76
2022/08/07 07:25:28;;;;;;;3.35;2.40;;;16.80;99.90;;;;;;20988643;28;20552;-77
2022/08/07 07:35:30;;;;;;;4.65;3.25;;;16.80;99.90;;;;;;20984090;28;20045;-76
2022/08/07 07:45:32;;;;;;;4.70;3.10;;;17.10;99.90;;;;;;21038369;28;20670;-76
2022/08/07 07:55:33;;;;;;;7.82;3.47;;;17.30;99.90;;;;;;21099539;28;20505;-77
2022/08/07 08:05:39;;;;;;;4.78;2.80;;;17.90;99.90;;;;;;21112462;28;20036;-77
2022/08/07 08:15:45;;;;;;;4.55;2.60;;;18.20;99.90;;;;;;21066897;22;20591;-81
2022/08/07 08:36:09;;;;;;;5.63;4.00;;;19.20;99.90;;;;;;21008733;28;20502;-81
2022/08/07 08:46:10;;;;;;;6.65;3.70;;;19.70;99.90;;;;;;21000155;28;20041;-80
2022/08/07 08:56:14;;;;;;;4.07;3.50;;;20.00;99.90;;;;;;21054667;28;20453;-80
2022/08/07 09:06:57;;;;;;;7.20;3.83;;;20.10;99.90;;;;;;21079912;28;20055;-79
2022/08/07 09:17:14;;;;;;;5.40;3.03;;;20.40;99.90;;;;;;21070253;28;20083;-79
2022/08/07 09:27:33;;;;;;;3.45;2.55;;;21.00;99.90;;;;;;21084008;28;20038;-82
2022/08/07 09:37:43;;;;;;;3.65;2.92;;;21.90;99.90;;;;;;21070205;28;20514;-81
2022/08/07 09:48:02;;;;;;;7.10;2.70;;;22.20;99.90;;;;;;21090540;28;20044;-80
2022/08/07 09:58:37;;;;;;;6.03;3.45;;;23.20;99.90;;;;;;21082682;28;20054;-81
2022/08/07 10:08:59;;;;;;;3.95;2.78;;;24.90;99.90;;;;;;21078444;28;20067;-82
2022/08/07 10:19:39;;;;;;;6.10;2.28;;;25.70;99.90;;;;;;21078267;28;20075;-81
2022/08/07 10:29:59;;;;;;;2.90;2.10;;;27.00;99.90;;;;;;21077162;28;20036;-79
2022/08/07 10:40:39;;;;;;;4.70;2.28;;;26.70;99.90;;;;;;21085096;28;20394;-81
2022/08/07 10:51:08;;;;;;;3.72;2.15;;;26.10;99.90;;;;;;20909375;28;20252;-78
2022/08/07 11:01:29;;;;;;;1.95;1.75;;;25.90;99.90;;;;;;21073524;28;20040;-78
2022/08/07 11:11:41;;;;;;;3.45;1.95;;;27.10;99.90;;;;;;21080802;28;20075;-78
2022/08/07 11:21:53;;;;;;;3.65;1.90;;;27.60;99.90;;;;;;21103469;28;20457;-78
2022/08/07 11:32:27;;;;;;;4.90;1.60;;;27.10;99.90;;;;;;21100971;28;20498;-79
2022/08/07 11:42:39;;;;;;;2.40;1.73;;;26.50;99.90;;;;;;21129068;28;20039;-79
2022/08/07 11:52:58;;;;;;;2.05;1.52;;;26.70;99.90;;;;;;21059915;28;20498;-78
2022/08/07 12:03:31;;;;;;;3.10;1.48;;;27.30;99.90;;;;;;21008104;28;20044;-79
2022/08/07 12:13:47;;;;;;;2.10;1.55;;;28.10;99.90;;;;;;21008416;28;20051;-78
2022/08/07 12:24:01;;;;;;;1.83;1.70;;;28.60;99.90;;;;;;21011137;28;20047;-79
2022/08/07 12:34:03;;;;;;;3.15;1.48;;;28.60;99.90;;;;;;21005826;28;20049;-77
2022/08/07 12:44:07;;;;;;;2.33;1.60;;;28.00;99.90;;;;;;21005110;28;20049;-79
2022/08/07 12:54:11;;;;;;;2.83;1.60;;;28.20;99.90;;;;;;21025077;28;20047;-79
2022/08/07 13:04:40;;;;;;;1.70;1.13;;;28.70;99.90;;;;;;21073582;28;20040;-80
2022/08/07 13:15:02;;;;;;;2.72;1.58;;;28.70;99.90;;;;;;21073717;28;20652;-78
2022/08/07 13:25:12;;;;;;;2.08;1.38;;;28.90;99.90;;;;;;21040995;28;20460;-78
2022/08/07 13:35:25;;;;;;;1.67;1.27;;;29.10;99.90;;;;;;21060615;28;20040;-79
2022/08/07 13:45:31;;;;;;;3.67;1.35;;;28.60;99.90;;;;;;21058979;28;20032;-80
2022/08/07 13:55:34;;;;;;;2.25;1.23;;;29.40;99.90;;;;;;21036222;28;20036;-79
2022/08/07 14:05:35;;;;;;;1.50;1.20;;;28.90;99.90;;;;;;21064206;28;20032;-78
2022/08/07 14:15:39;;;;;;;5.80;1.17;;;29.30;99.90;;;;;;21034688;23;20199;-82
2022/08/07 14:25:43;;;;;;;2.35;1.42;;;29.00;99.90;;;;;;20997068;28;20048;-82
2022/08/07 14:35:45;;;;;;;2.13;1.40;;;28.30;99.90;;;;;;21014924;28;20528;-82
2022/08/07 14:45:52;;;;;;;1.40;1.00;;;27.80;99.90;;;;;;21011323;28;20037;-82
2022/08/07 14:55:54;;;;;;;2.78;1.35;;;27.80;99.90;;;;;;21011279;28;20066;-82
2022/08/07 15:05:56;;;;;;;1.52;1.20;;;27.50;99.90;;;;;;21072849;28;20036;-82
2022/08/07 15:16:03;;;;;;;3.00;1.17;;;27.60;99.90;;;;;;21111167;28;20134;-82
2022/08/07 15:26:07;;;;;;;4.30;1.63;;;26.80;99.90;;;;;;21109982;28;20044;-82
2022/08/07 15:36:09;;;;;;;2.75;1.48;;;26.60;99.90;;;;;;21109580;28;20066;-81
2022/08/07 15:46:22;;;;;;;3.45;1.15;;;26.70;99.90;;;;;;21107820;28;20047;-81
2022/08/07 15:56:35;;;;;;;2.50;1.38;;;26.90;99.90;;;;;;21105199;28;20127;-80
2022/08/07 16:06:42;;;;;;;2.20;1.33;;;26.10;99.90;;;;;;21117116;28;20334;-79
2022/08/07 16:17:10;;;;;;;1.65;1.33;;;26.00;99.90;;;;;;21141942;28;20051;-80
2022/08/07 16:27:27;;;;;;;2.58;1.25;;;25.80;99.90;;;;;;21139653;28;20048;-79
2022/08/07 16:37:53;;;;;;;5.88;1.50;;;25.70;99.90;;;;;;21138742;28;20039;-79
2022/08/07 16:48:12;;;;;;;4.13;1.50;;;25.40;99.90;;;;;;21139636;28;20321;-79
2022/08/07 16:58:21;;;;;;;2.00;1.65;;;25.00;99.90;;;;;;21139801;28;20032;-79
2022/08/07 17:08:37;;;;;;;2.72;1.50;;;24.80;99.90;;;;;;21137443;28;20073;-79
2022/08/07 17:18:56;;;;;;;4.38;1.63;;;24.70;99.90;;;;;;21121816;28;20040;-79
2022/08/07 17:28:56;;;;;;;4.07;1.60;;;24.50;99.90;;;;;;21069273;28;20489;-79
2022/08/07 17:39:05;;;;;;;2.93;1.40;;;24.30;99.90;;;;;;21076181;28;20048;-79
2022/08/07 17:49:20;;;;;;;2.55;1.55;;;24.30;99.90;;;;;;21101531;28;20277;-79
2022/08/07 17:59:27;;;;;;;4.03;1.73;;;24.10;99.90;;;;;;21118725;28;20044;-79
2022/08/07 18:09:31;;;;;;;3.30;1.45;;;24.00;99.90;;;;;;21138027;28;20040;-79
2022/08/07 18:19:42;;;;;;;4.78;1.80;;;24.10;99.90;;;;;;21128536;28;20041;-79
2022/08/07 18:30:08;;;;;;;5.83;1.70;;;23.80;99.90;;;;;;21118949;28;20043;-79
2022/08/07 18:40:18;;;;;;;4.15;1.73;;;23.30;99.90;;;;;;21113470;28;20093;-79
2022/08/07 18:50:28;;;;;;;6.45;1.90;;;22.90;99.90;;;;;;21127659;28;20448;-79
2022/08/07 19:00:37;;;;;;;1.90;1.70;;;22.60;99.90;;;;;;21113185;28;20051;-78
2022/08/07 19:10:54;;;;;;;2.58;1.75;;;22.10;99.90;;;;;;21116358;28;20492;-79
2022/08/07 19:21:14;;;;;;;3.35;1.92;;;21.60;99.90;;;;;;21086077;28;20049;-78
2022/08/07 19:31:23;;;;;;;3.35;2.00;;;21.20;99.90;;;;;;21103281;28;20063;-78
2022/08/07 19:41:31;;;;;;;5.60;2.40;;;21.00;99.90;;;;;;21095244;28;20069;-78
2022/08/07 19:51:36;;;;;;;2.60;2.10;;;20.70;99.90;;;;;;21121788;28;20037;-77
2022/08/07 20:01:48;;;;;;;4.15;2.47;;;20.50;99.90;;;;;;21097390;28;20466;-78
2022/08/07 20:11:53;;;;;;;6.40;2.38;;;20.20;99.90;;;;;;21093418;28;20088;-77
2022/08/07 20:21:55;;;;;;;4.47;2.47;;;20.20;99.90;;;;;;21081433;28;20051;-78
2022/08/07 20:31:59;;;;;;;3.55;2.30;;;20.00;99.90;;;;;;21096944;28;20034;-78
2022/08/07 20:42:05;;;;;;;5.35;2.33;;;20.00;99.90;;;;;;21100353;28;20044;-77
2022/08/07 20:52:13;;;;;;;3.47;2.10;;;19.80;99.90;;;;;;21027510;28;20032;-77
2022/08/07 21:12:37;;;;;;;5.27;2.63;;;19.50;99.90;;;;;;21051090;28;20096;-77
2022/08/07 21:22:42;;;;;;;3.05;2.47;;;18.50;99.90;;;;;;21074499;28;20052;-77
2022/08/07 21:32:54;;;;;;;3.08;2.40;;;18.60;99.90;;;;;;21109069;28;20035;-77
2022/08/07 21:43:07;;;;;;;4.45;2.50;;;18.60;99.90;;;;;;21119855;28;20050;-78
2022/08/07 21:53:11;;;;;;;4.05;2.40;;;18.60;99.90;;;;;;21105934;28;20050;-79
2022/08/07 22:03:14;;;;;;;6.18;2.38;;;18.60;99.90;;;;;;21093579;28;20036;-78
2022/08/07 22:13:15;;;;;;;5.45;2.53;;;18.70;99.90;;;;;;21095430;28;20040;-78
2022/08/07 22:23:23;;;;;;;3.97;2.40;;;18.70;99.90;;;;;;21111559;28;20091;-79
2022/08/07 22:33:45;;;;;;;3.03;2.38;;;18.20;99.90;;;;;;21102808;28;20036;-78
2022/08/07 22:43:50;;;;;;;2.70;2.50;;;18.30;99.90;;;;;;21094131;28;20088;-78
2022/08/07 22:54:03;;;;;;;2.65;2.45;;;18.20;99.90;;;;;;21094627;28;20040;-76
2022/08/07 23:04:42;;;;;;;3.97;2.30;;;18.00;99.90;;;;;;21137017;28;20042;-80
2022/08/07 23:15:11;;;;;;;3.85;2.47;;;18.00;99.90;;;;;;21139487;28;20036;-80
2022/08/07 23:25:41;;;;;;;3.63;2.20;;;18.00;99.90;;;;;;21154405;28;20043;-79
2022/08/07 23:36:01;;;;;;;3.75;3.03;;;17.90;99.90;;;;;;21084859;28;20040;-81
2022/08/07 23:46:37;;;;;;;4.68;2.17;;;17.70;99.90;;;;;;21154209;28;20410;-79
2022/08/07 23:56:52;;;;;;;5.53;2.00;;;17.70;99.90;;;;;;21077124;28;20043;-78
